NCAR-RAP Real-Time Weather Data

Output produced by METARs form (10 April 2020  06:56 UTC)
found at http://weather.rap.ucar.edu/surface/
 
KEAU 100556Z AUTO 30009KT 10SM OVC050 02/M07 A2999 RMK AO2 SLP163 T00221072 10033 20022 400561006 55000
KEAU 100456Z AUTO 32008KT 10SM OVC055 02/M08 A2998 RMK AO2 SLP160 T00221083
KEAU 100356Z AUTO 31013G18KT 10SM OVC060 02/M08 A2998 RMK AO2 SLP160 T00221078
KEAU 100256Z AUTO 32010G16KT 10SM OVC065 03/M08 A2999 RMK AO2 SLP163 T00281078 51021
KEAU 100156Z AUTO 32014G24KT 10SM OVC065 03/M08 A2997 RMK AO2 SLP158 T00281078
KEAU 100056Z 33011G23KT 10SM OVC060 03/M08 A2995 RMK AO2 SLP150 T00281083
KEAU 092356Z COR 33013G21KT 10SM BKN065 03/M09 A2992 RMK AO2 PK WND 33026/2330 SLP143 60001 T00331089 10044 21006 53017
KEAU 092256Z 34013G28KT 10SM OVC065 03/M09 A2990 RMK AO2 PK WND 32028/2213 SLP135 T00331094
KEAU 092156Z 34013G20KT 9SM FEW048 OVC065 03/M06 A2987 RMK AO2 SNE03B36E51 SLP125 P0000 T00331061
KEAU 092104Z 33014G23KT 9SM FEW034 BKN041 OVC070 02/M04 A2987 RMK AO2 SNE03 P0000 T00171044
KEAU 092056Z 34016G37KT 2 1/2SM -SN SCT028 SCT037 BKN046 01/M04 A2987 RMK AO2 PK WND 34037/2047 SNB48 SLP125 P0000 60001 T00061044 51022
KEAU 091956Z 34012G19KT 9SM SCT024 SCT037 BKN049 02/M02 A2986 RMK AO2 PK WND 33030/1914 SNE54 SLP121 P0000 T00221022
KEAU 091953Z 35010G19KT 5SM -SN SCT024 BKN037 BKN110 02/M02 A2986 RMK AO2 PK WND 33030/1914 P0000
KEAU 091942Z 35021G28KT 1 3/4SM -SN BKN026 BKN039 OVC070 01/M03 A2986 RMK AO2 PK WND 33030/1914 P0000 T00111033
KEAU 091856Z 34008KT 9SM -SN SCT014 BKN100 02/M03 A2983 RMK AO2 PK WND 36030/1820 SNB1757 SLP112 P0001 T00171028
KEAU 091854Z 34007KT 8SM -SN SCT016 SCT029 OVC095 01/M03 A2983 RMK AO2 PK WND 36030/1820 SNB1757 P0001
KEAU 091851Z 34007KT 3SM -SN BKN016 BKN028 OVC095 00/M03 A2983 RMK AO2 PK WND 36030/1820 SNB1757 P0001
KEAU 091848Z 33005G19KT 1SM -SN BKN016 BKN028 OVC095 M01/M03 A2983 RMK AO2 PK WND 36030/1820 SNB1757 P0001 T10061033
KEAU 091844Z 32009G28KT 1/2SM SN BKN011 BKN026 OVC034 M01/M03 A2983 RMK AO2 PK WND 36030/1820 SNB1757 P0001 T10061033
KEAU 091842Z 34010G28KT 1/4SM +SN BKN009 BKN016 OVC026 M01/M03 A2984 RMK AO2 PK WND 36030/1820 SNB1757 P0001 T10061033
KEAU 091832Z 35011KT 1SM -SN SCT009 BKN021 OVC050 01/M02 A2983 RMK AO2 PK WND 36030/1820 SNB1757 P0001 T00061022
KEAU 091824Z 36011G30KT 3/4SM -SN FEW013 BKN035 OVC100 00/M03 A2982 RMK AO2 PK WND 36030/1820 SNB1757 P0001 T00001033
KEAU 091821Z 35018G30KT 1 1/2SM -SN FEW018 BKN029 OVC100 01/M04 A2983 RMK AO2 PK WND 36030/1820 VIS 3/4V5 SNB1757 P0000 T00061039
KEAU 091756Z 35014G22KT 9SM FEW041 BKN048 OVC100 03/M07 A2980 RMK AO2 PK WND 34028/1739 RAB28E37 SLP101 P0000 60000 T00331067 10056 20000 53011
KEAU 091656Z 33013G23KT 310V010 10SM SCT043 BKN050 BKN065 05/M07 A2978 RMK AO2 PK WND 31027/1636 SLP093 T00501072
KEAU 091556Z 32016G30KT 10SM FEW046 FEW055 04/M07 A2978 RMK AO2 PK WND 35030/1547 SNE05 SLP091 P0000 T00391072
KEAU 091456Z 31013G23KT 10SM -SN BKN040 BKN049 OVC070 02/M07 A2977 RMK AO2 PK WND 32027/1440 SNB54 SLP088 P0000 60000 T00171067 58001
KEAU 091356Z 31012G24KT 10SM FEW035 02/M06 A2978 RMK AO2 PK WND 32030/1320 SLP089 T00221061
KEAU 091256Z 29011G22KT 10SM FEW028 01/M05 A2978 RMK AO2 SLP092 T00111050
KEAU 091156Z 28010G18KT 10SM CLR 00/M05 A2977 RMK AO2 SLP089 T00001050 10022 20000 53002
KEAU 091056Z 28009KT 10SM CLR 00/M05 A2977 RMK AO2 SLP085 T00001050
KEAU 090956Z AUTO 28010KT 10SM CLR 01/M04 A2977 RMK AO2 SLP086 T00061044
KEAU 090856Z AUTO 28007KT 10SM CLR 01/M04 A2977 RMK AO2 SLP085 T00061044 58009